Time;durP1;ratioP1;P1;durP2;ratioP2;P2;SDS_P1;SDS_P2;PMS_P1;PMS_P2;Temp;Humidity;BMP_temperature;BMP_pressure;BME280_temperature;BME280_humidity;BME280_pressure;Samples;Min_cycle;Max_cycle;Signal;HPM_P1;HPM_P2
2022/08/02 00:00:23;;;;;;;7.45;2.38;;;12.90;99.90;;;;;;4955415;29;20113;-72
2022/08/02 00:02:48;;;;;;;8.52;2.08;;;12.80;99.90;;;;;;4939107;29;20054;-72
2022/08/02 00:05:14;;;;;;;10.82;2.70;;;12.90;99.90;;;;;;4957128;28;20055;-73
2022/08/02 00:07:40;;;;;;;13.70;2.65;;;12.90;99.90;;;;;;4956623;28;20531;-73
2022/08/02 00:10:07;;;;;;;9.27;2.55;;;12.90;99.90;;;;;;4956783;28;20388;-73
2022/08/02 00:12:33;;;;;;;11.05;2.60;;;12.90;99.90;;;;;;4955114;29;20049;-72
2022/08/02 00:14:59;;;;;;;9.75;2.88;;;12.90;99.90;;;;;;4955395;29;20074;-72
2022/08/02 00:17:25;;;;;;;12.07;2.77;;;12.80;99.90;;;;;;4954769;29;20491;-73
2022/08/02 00:19:51;;;;;;;9.40;2.40;;;12.80;99.90;;;;;;4939590;29;20043;-73
2022/08/02 00:22:17;;;;;;;11.40;2.92;;;12.80;99.90;;;;;;4923664;29;20047;-72
2022/08/02 00:24:42;;;;;;;8.40;2.63;;;12.80;99.90;;;;;;4955288;29;20131;-73
2022/08/02 00:27:08;;;;;;;10.95;2.58;;;12.80;99.90;;;;;;4956543;29;20122;-73
2022/08/02 00:29:34;;;;;;;9.90;2.63;;;12.80;99.90;;;;;;4955752;29;20435;-73
2022/08/02 00:32:01;;;;;;;7.13;2.60;;;12.80;99.90;;;;;;4956657;29;20047;-72
2022/08/02 00:34:26;;;;;;;9.27;2.60;;;12.70;99.90;;;;;;4956276;29;20404;-72
2022/08/02 00:36:52;;;;;;;11.68;3.10;;;12.70;99.90;;;;;;4955588;29;20054;-74
2022/08/02 00:39:18;;;;;;;10.27;2.95;;;12.70;99.90;;;;;;4956129;29;20051;-73
2022/08/02 00:41:48;;;;;;;12.70;3.15;;;12.70;99.90;;;;;;4954882;29;20047;-73
2022/08/02 00:44:15;;;;;;;12.80;3.58;;;12.70;99.90;;;;;;4955057;29;20102;-71
2022/08/02 00:46:42;;;;;;;12.05;3.67;;;12.70;99.90;;;;;;4939232;29;20060;-72
2022/08/02 00:49:08;;;;;;;8.15;2.95;;;12.60;99.90;;;;;;4923676;29;20059;-73
2022/08/02 00:51:34;;;;;;;12.07;4.05;;;12.70;99.90;;;;;;4955421;29;20412;-75
2022/08/02 00:53:59;;;;;;;13.35;3.83;;;12.60;99.90;;;;;;4956074;28;20059;-74
2022/08/02 00:56:25;;;;;;;9.90;3.67;;;12.60;99.90;;;;;;4938432;29;20103;-73
2022/08/02 00:58:51;;;;;;;10.77;3.90;;;12.60;99.90;;;;;;4954488;29;20145;-73
2022/08/02 01:01:17;;;;;;;14.10;3.83;;;12.50;99.90;;;;;;4955107;28;20069;-73
2022/08/02 01:03:43;;;;;;;13.57;4.32;;;12.50;99.90;;;;;;4954356;29;20435;-73
2022/08/02 01:06:09;;;;;;;13.65;4.13;;;12.50;99.90;;;;;;4955446;29;20070;-73
2022/08/02 01:08:38;;;;;;;9.70;4.03;;;12.50;99.90;;;;;;4954562;29;20057;-72
2022/08/02 01:11:03;;;;;;;13.23;4.30;;;12.40;99.90;;;;;;4938752;29;20469;-72
2022/08/02 01:13:29;;;;;;;10.43;4.40;;;12.50;99.90;;;;;;4954071;29;20050;-72
2022/08/02 01:16:02;;;;;;;9.80;3.97;;;12.40;99.90;;;;;;4938587;29;20099;-71
2022/08/02 01:18:35;;;;;;;11.57;3.97;;;12.30;99.90;;;;;;4953777;29;20051;-72
2022/08/02 01:21:15;;;;;;;13.77;3.88;;;12.30;99.90;;;;;;4938287;29;20098;-73
2022/08/02 01:23:54;;;;;;;18.83;4.65;;;12.30;99.90;;;;;;4954097;29;20129;-73
2022/08/02 01:26:51;;;;;;;9.30;4.18;;;12.30;99.90;;;;;;4955640;29;20043;-73
2022/08/02 01:29:20;;;;;;;13.65;4.10;;;12.30;99.90;;;;;;4953659;29;20051;-73
2022/08/02 01:31:51;;;;;;;19.75;4.47;;;12.20;99.90;;;;;;4954141;29;20075;-73
2022/08/02 01:34:32;;;;;;;16.05;4.65;;;12.20;99.90;;;;;;4954547;29;20491;-73
2022/08/02 01:37:14;;;;;;;11.50;4.47;;;12.20;99.90;;;;;;4954438;28;20125;-74
2022/08/02 01:39:43;;;;;;;13.27;4.55;;;12.20;99.90;;;;;;4937901;29;20129;-74
2022/08/02 01:42:10;;;;;;;14.30;4.50;;;12.20;99.90;;;;;;4954745;28;20054;-74
2022/08/02 01:44:41;;;;;;;17.00;4.88;;;12.20;99.90;;;;;;4938026;29;20055;-73
2022/08/02 01:47:16;;;;;;;15.52;5.07;;;12.20;99.90;;;;;;4955221;29;20361;-73
2022/08/02 01:49:46;;;;;;;16.55;4.78;;;12.20;99.90;;;;;;4938411;29;20182;-73
2022/08/02 01:52:24;;;;;;;13.32;4.78;;;12.10;99.90;;;;;;4954118;28;20059;-72
2022/08/02 01:54:57;;;;;;;15.63;4.85;;;12.10;99.90;;;;;;4953195;29;20051;-73
2022/08/02 01:57:25;;;;;;;16.02;5.65;;;12.10;99.90;;;;;;4953706;28;20043;-70
2022/08/02 01:59:51;;;;;;;9.13;4.65;;;12.10;99.90;;;;;;4937035;29;20058;-74
2022/08/02 02:02:18;;;;;;;14.38;5.70;;;12.10;99.90;;;;;;4954269;29;20047;-71
2022/08/02 02:04:45;;;;;;;14.05;4.97;;;12.20;99.90;;;;;;4953981;29;20067;-70
2022/08/02 02:07:14;;;;;;;14.75;5.22;;;12.10;99.90;;;;;;4952750;29;20062;-72
2022/08/02 02:09:41;;;;;;;12.18;5.15;;;12.30;99.90;;;;;;4937449;29;20130;-71
2022/08/02 02:12:08;;;;;;;;;;;12.00;99.90;;;;;;4954471;29;20059;-70
2022/08/02 02:14:35;;;;;;;17.23;4.97;;;12.10;99.90;;;;;;4936284;29;19976;-71
2022/08/02 02:17:03;;;;;;;15.45;5.20;;;12.10;99.90;;;;;;4936698;29;20066;-70
2022/08/02 02:19:31;;;;;;;16.52;5.65;;;12.00;99.90;;;;;;4953084;29;20127;-71
2022/08/02 02:21:57;;;;;;;11.95;5.63;;;12.10;99.90;;;;;;4936695;29;20055;-71
2022/08/02 02:24:23;;;;;;;11.45;4.55;;;12.10;99.90;;;;;;4953995;29;20051;-72
2022/08/02 02:26:50;;;;;;;14.73;5.35;;;12.10;99.90;;;;;;4936813;29;20047;-71
2022/08/02 02:29:17;;;;;;;13.90;6.03;;;12.00;99.90;;;;;;4952844;29;20106;-79
2022/08/02 02:31:45;;;;;;;13.48;5.45;;;12.00;99.90;;;;;;4936551;29;20488;-73
2022/08/02 02:34:44;;;;;;;15.88;5.95;;;12.00;99.90;;;;;;4953768;29;20062;-71
2022/08/02 02:37:20;;;;;;;17.02;6.35;;;12.00;99.90;;;;;;4939962;29;20055;-70
2022/08/02 02:39:49;;;;;;;14.13;5.72;;;12.00;99.90;;;;;;4954118;28;20055;-72
2022/08/02 02:42:18;;;;;;;15.57;5.18;;;12.00;99.90;;;;;;4954257;29;20051;-71
2022/08/02 02:44:45;;;;;;;15.65;5.40;;;12.00;99.90;;;;;;4952527;29;20051;-70
2022/08/02 02:47:14;;;;;;;17.75;5.65;;;12.00;99.90;;;;;;4953082;29;20055;-72
2022/08/02 02:49:44;;;;;;;15.32;5.55;;;12.00;99.90;;;;;;4952388;29;20540;-70
2022/08/02 02:52:13;;;;;;;18.25;5.68;;;12.10;99.90;;;;;;4936251;29;20141;-70
2022/08/02 02:54:39;;;;;;;14.20;5.28;;;12.10;99.90;;;;;;4953337;29;20047;-71
2022/08/02 02:57:06;;;;;;;14.93;5.07;;;12.00;99.90;;;;;;4953589;28;20482;-71
2022/08/02 02:59:35;;;;;;;13.48;5.00;;;12.00;99.90;;;;;;4952729;29;20464;-71
2022/08/02 03:02:02;;;;;;;18.05;6.10;;;12.10;99.90;;;;;;4936567;29;20130;-74
2022/08/02 03:04:29;;;;;;;12.70;4.93;;;12.10;99.90;;;;;;4952213;29;20050;-72
2022/08/02 03:06:54;;;;;;;17.85;6.20;;;12.10;99.90;;;;;;4952581;29;20063;-71
2022/08/02 03:09:20;;;;;;;13.25;5.25;;;12.00;99.90;;;;;;4952157;29;20588;-76
2022/08/02 03:11:47;;;;;;;12.80;5.32;;;12.00;99.90;;;;;;4953578;29;20051;-71
2022/08/02 03:14:13;;;;;;;20.92;5.75;;;12.00;99.90;;;;;;4936049;29;20102;-72
2022/08/02 03:16:44;;;;;;;16.45;5.95;;;12.10;99.90;;;;;;4953318;29;20480;-73
2022/08/02 03:19:10;;;;;;;17.85;5.55;;;12.10;99.90;;;;;;4954316;28;20043;-71
2022/08/02 03:21:36;;;;;;;15.95;5.80;;;12.10;99.90;;;;;;4952149;29;20118;-72
2022/08/02 03:24:02;;;;;;;17.00;5.28;;;12.10;99.90;;;;;;4952190;28;20067;-71
2022/08/02 03:26:28;;;;;;;13.88;6.15;;;12.00;99.90;;;;;;4955623;29;20051;-72
2022/08/02 03:28:54;;;;;;;14.25;5.68;;;12.00;99.90;;;;;;4955160;29;20043;-74
2022/08/02 03:31:19;;;;;;;16.95;6.03;;;12.10;99.90;;;;;;4957065;29;20074;-72
2022/08/02 03:33:45;;;;;;;17.60;5.57;;;12.00;99.90;;;;;;4955424;29;20051;-71
2022/08/02 03:36:18;;;;;;;17.58;6.13;;;12.00;99.90;;;;;;4955439;29;20091;-72
2022/08/02 03:38:45;;;;;;;13.27;5.72;;;12.00;99.90;;;;;;4939262;29;20047;-71
2022/08/02 03:41:14;;;;;;;16.85;6.32;;;12.00;99.90;;;;;;4939670;29;20154;-71
2022/08/02 03:43:42;;;;;;;19.23;6.22;;;12.00;99.90;;;;;;4923999;29;20157;-74
2022/08/02 03:46:09;;;;;;;14.80;5.78;;;12.00;99.90;;;;;;4955500;29;20047;-71
2022/08/02 03:48:37;;;;;;;19.20;5.75;;;12.00;99.90;;;;;;4955644;29;20062;-71
2022/08/02 03:51:03;;;;;;;15.95;6.28;;;12.00;99.90;;;;;;4955209;29;20058;-71
2022/08/02 03:53:30;;;;;;;13.00;5.72;;;12.00;99.90;;;;;;4939014;29;20090;-72
2022/08/02 03:55:56;;;;;;;14.13;5.50;;;12.00;99.90;;;;;;4955193;29;20051;-72
2022/08/02 03:58:23;;;;;;;18.17;6.13;;;12.10;99.90;;;;;;4955035;29;20050;-73
2022/08/02 04:00:50;;;;;;;15.10;5.95;;;12.10;99.90;;;;;;4956320;28;20047;-71
2022/08/02 04:03:16;;;;;;;17.70;6.57;;;12.10;99.90;;;;;;4954661;29;20484;-71
2022/08/02 04:05:42;;;;;;;17.38;6.60;;;12.10;99.90;;;;;;4955494;29;20039;-71
2022/08/02 04:08:07;;;;;;;18.30;6.75;;;12.10;99.90;;;;;;4954768;29;20047;-73
2022/08/02 04:13:21;;;;;;;17.13;6.45;;;12.10;99.90;;;;;;4935265;28;20051;-72
2022/08/02 04:15:53;;;;;;;16.83;5.88;;;12.20;99.90;;;;;;4954792;29;20157;-70
2022/08/02 04:18:21;;;;;;;19.65;5.90;;;12.20;99.90;;;;;;4956140;28;20063;-74
2022/08/02 04:20:48;;;;;;;19.55;6.85;;;12.20;99.90;;;;;;4938763;29;20142;-71
2022/08/02 04:23:16;;;;;;;14.13;6.53;;;12.20;99.90;;;;;;4955323;29;20429;-72
2022/08/02 04:25:43;;;;;;;16.35;5.70;;;12.30;99.90;;;;;;4954737;29;20051;-72
2022/08/02 04:28:10;;;;;;;14.48;6.10;;;12.30;99.90;;;;;;4954619;29;20464;-71
2022/08/02 04:30:37;;;;;;;;;;;12.40;99.90;;;;;;4956266;29;20058;-72
2022/08/02 04:33:03;;;;;;;21.25;6.32;;;12.40;99.90;;;;;;4954523;29;20279;-72
2022/08/02 04:35:28;;;;;;;17.35;6.13;;;12.40;99.90;;;;;;4956020;29;20124;-71
2022/08/02 04:37:55;;;;;;;20.38;6.30;;;12.40;99.90;;;;;;4954114;28;20059;-71
2022/08/02 04:40:20;;;;;;;11.90;5.40;;;12.40;99.90;;;;;;4954456;29;20551;-71
2022/08/02 04:42:46;;;;;;;18.40;6.38;;;12.50;99.90;;;;;;4938430;29;20051;-71
2022/08/02 04:45:12;;;;;;;20.75;5.53;;;12.50;99.90;;;;;;4938308;29;20094;-71
2022/08/02 04:47:38;;;;;;;18.65;6.07;;;12.60;99.90;;;;;;4953873;29;20051;-70
2022/08/02 04:50:04;;;;;;;14.10;6.13;;;12.60;99.90;;;;;;4922327;29;20074;-70
2022/08/02 04:52:30;;;;;;;18.38;6.10;;;12.80;99.90;;;;;;4955356;29;20375;-71
2022/08/02 04:54:55;;;;;;;17.27;6.30;;;12.80;99.90;;;;;;4922047;29;20137;-71
2022/08/02 05:00:07;;;;;;;13.15;5.85;;;12.90;99.90;;;;;;4954943;29;20051;-73
2022/08/02 05:02:33;;;;;;;;;;;13.00;99.90;;;;;;4954224;29;20130;-72
2022/08/02 05:04:59;;;;;;;13.65;5.63;;;13.00;99.90;;;;;;4953869;29;19963;-72
2022/08/02 05:07:25;;;;;;;15.10;5.05;;;13.10;99.90;;;;;;4955404;28;20387;-71
2022/08/02 05:09:51;;;;;;;16.20;5.50;;;13.10;99.90;;;;;;4953241;29;20395;-71
2022/08/02 05:12:18;;;;;;;13.27;5.43;;;13.20;99.90;;;;;;4953173;29;20087;-71
2022/08/02 05:14:43;;;;;;;;;;;13.20;99.90;;;;;;4954631;29;20055;-71
2022/08/02 05:17:09;;;;;;;12.80;5.23;;;13.30;99.90;;;;;;4953401;28;20382;-70
2022/08/02 05:19:35;;;;;;;14.93;4.90;;;13.30;99.90;;;;;;4955015;29;20131;-71
2022/08/02 05:22:00;;;;;;;11.07;5.25;;;13.40;99.90;;;;;;4953633;29;20205;-70
2022/08/02 05:24:26;;;;;;;16.00;5.40;;;13.50;99.90;;;;;;4953111;29;20053;-71
2022/08/02 05:26:52;;;;;;;15.98;4.78;;;13.50;99.90;;;;;;4953331;29;20393;-72
2022/08/02 05:29:18;;;;;;;24.48;5.55;;;13.60;99.90;;;;;;4953563;29;20114;-71
2022/08/02 05:31:44;;;;;;;14.13;5.40;;;13.70;99.90;;;;;;4953326;29;20110;-70
2022/08/02 05:34:10;;;;;;;17.23;4.88;;;13.70;99.90;;;;;;4954269;29;20086;-72
2022/08/02 05:36:36;;;;;;;11.05;5.13;;;13.70;99.90;;;;;;4952890;29;20105;-74
2022/08/02 05:39:01;;;;;;;13.00;5.43;;;13.80;99.90;;;;;;4954396;28;20141;-73
2022/08/02 05:41:27;;;;;;;14.35;5.38;;;13.80;99.90;;;;;;4953006;29;20054;-71
2022/08/02 05:43:53;;;;;;;16.60;5.53;;;13.80;99.90;;;;;;4954627;29;20170;-72
2022/08/02 05:46:18;;;;;;;18.88;5.68;;;13.90;99.90;;;;;;4937082;29;20044;-72
2022/08/02 05:48:44;;;;;;;12.43;5.70;;;14.00;99.90;;;;;;4953685;28;20139;-70
2022/08/02 05:51:22;;;;;;;13.30;5.03;;;14.10;99.90;;;;;;4936805;29;20055;-70
2022/08/02 05:54:25;;;;;;;14.48;5.53;;;14.20;99.90;;;;;;4954234;29;20059;-71
2022/08/02 05:56:50;;;;;;;12.23;5.20;;;14.30;99.90;;;;;;4936703;29;20051;-71
2022/08/02 05:59:19;;;;;;;14.15;6.13;;;14.40;99.90;;;;;;4954015;29;20322;-70
2022/08/02 06:01:47;;;;;;;13.55;5.00;;;14.40;99.90;;;;;;4936856;29;20043;-73
2022/08/02 06:04:30;;;;;;;15.20;5.20;;;14.50;99.90;;;;;;4952550;29;20050;-72
2022/08/02 06:07:01;;;;;;;14.65;5.05;;;14.60;99.90;;;;;;4954465;28;20039;-71
2022/08/02 06:09:28;;;;;;;11.18;5.00;;;14.70;99.90;;;;;;4936833;29;20059;-69
2022/08/02 06:11:57;;;;;;;12.65;5.28;;;14.80;99.90;;;;;;4952645;29;20089;-70
2022/08/02 06:14:24;;;;;;;14.10;5.03;;;15.00;99.90;;;;;;4953813;28;20051;-71
2022/08/02 06:16:51;;;;;;;13.05;4.93;;;15.10;99.90;;;;;;4953415;28;20435;-73
2022/08/02 06:19:19;;;;;;;12.57;5.00;;;15.20;99.90;;;;;;4953672;28;20093;-73
2022/08/02 06:21:45;;;;;;;14.60;5.57;;;15.30;99.90;;;;;;4953678;28;20051;-71
2022/08/02 06:24:12;;;;;;;14.13;5.10;;;15.40;99.90;;;;;;4953203;28;20051;-72
2022/08/02 06:26:40;;;;;;;12.68;5.00;;;15.60;99.90;;;;;;4952460;29;20402;-70
2022/08/02 06:29:06;;;;;;;19.52;6.43;;;15.70;99.90;;;;;;4953715;29;20154;-70
2022/08/02 06:31:32;;;;;;;15.45;5.47;;;15.70;99.90;;;;;;4937019;29;20059;-70
2022/08/02 06:33:58;;;;;;;12.77;4.77;;;15.80;99.90;;;;;;4952363;29;20047;-71
2022/08/02 06:36:39;;;;;;;12.73;4.90;;;15.90;99.90;;;;;;4937079;29;20404;-72
2022/08/02 06:39:25;;;;;;;16.20;5.22;;;16.00;99.90;;;;;;4953885;29;20384;-71
2022/08/02 06:41:54;;;;;;;13.43;5.00;;;16.10;99.90;;;;;;4953896;28;20105;-71
2022/08/02 06:44:20;;;;;;;12.57;5.10;;;16.20;99.90;;;;;;4953598;28;20484;-71
2022/08/02 06:46:46;;;;;;;11.88;4.45;;;16.20;99.90;;;;;;4952676;29;20062;-70
2022/08/02 06:49:11;;;;;;;16.50;4.70;;;16.30;99.90;;;;;;4936872;29;20047;-71
2022/08/02 06:51:37;;;;;;;13.55;4.70;;;16.40;99.90;;;;;;4936104;29;20385;-72
2022/08/02 06:54:03;;;;;;;12.88;4.22;;;16.60;99.90;;;;;;4920659;29;20146;-72
2022/08/02 06:56:29;;;;;;;12.35;4.55;;;16.60;99.90;;;;;;4954045;29;20043;-71
2022/08/02 06:58:54;;;;;;;13.02;4.85;;;16.70;99.90;;;;;;4953517;28;20122;-71
2022/08/02 07:01:20;;;;;;;18.63;4.50;;;16.80;99.90;;;;;;4957616;29;20098;-71
2022/08/02 07:03:46;;;;;;;12.55;4.82;;;16.90;99.90;;;;;;4956646;29;20078;-71
2022/08/02 07:06:12;;;;;;;11.57;3.70;;;17.00;99.90;;;;;;4939997;29;20103;-71
2022/08/02 07:08:38;;;;;;;10.35;3.92;;;17.20;99.90;;;;;;4956856;28;20058;-70
2022/08/02 07:11:05;;;;;;;13.98;3.90;;;17.40;99.90;;;;;;4957025;29;20142;-70
2022/08/02 07:13:31;;;;;;;7.68;3.58;;;17.60;99.90;;;;;;4955648;29;20050;-72
2022/08/02 07:15:56;;;;;;;7.20;3.33;;;17.80;99.90;;;;;;4939474;29;20054;-71
2022/08/02 07:18:23;;;;;;;12.88;3.50;;;17.90;99.90;;;;;;4940093;29;20043;-70
2022/08/02 07:20:49;;;;;;;11.18;3.33;;;18.10;99.90;;;;;;4955684;29;20047;-72
2022/08/02 07:23:15;;;;;;;10.43;3.20;;;18.30;99.90;;;;;;4940010;29;20109;-72
2022/08/02 07:25:41;;;;;;;10.07;2.95;;;18.40;99.90;;;;;;4956584;29;20047;-71
2022/08/02 07:28:11;;;;;;;7.20;2.80;;;18.50;99.90;;;;;;4956685;28;20524;-73
2022/08/02 07:30:37;;;;;;;9.02;3.15;;;18.50;99.90;;;;;;4956512;28;20535;-71
2022/08/02 07:33:03;;;;;;;7.85;2.80;;;18.40;99.90;;;;;;4955473;29;20043;-73
2022/08/02 07:35:29;;;;;;;9.38;2.92;;;18.50;99.90;;;;;;4956556;29;20493;-72
2022/08/02 07:37:55;;;;;;;7.17;2.57;;;18.60;99.90;;;;;;4924242;29;20138;-79
2022/08/02 07:40:22;;;;;;;6.43;2.83;;;18.70;99.90;;;;;;4939378;29;20070;-72
2022/08/02 07:42:50;;;;;;;;;;;18.80;99.90;;;;;;4955819;29;20107;-72
2022/08/02 07:45:16;;;;;;;9.13;3.03;;;18.90;99.90;;;;;;4955289;29;19926;-71
2022/08/02 07:47:43;;;;;;;8.10;2.93;;;18.90;99.90;;;;;;4956461;28;20494;-70
2022/08/02 07:50:11;;;;;;;9.95;2.97;;;19.00;99.90;;;;;;4956303;28;20419;-73
2022/08/02 07:52:37;;;;;;;8.75;2.72;;;19.20;99.90;;;;;;4956530;28;20059;-72
2022/08/02 07:55:07;;;;;;;7.97;2.63;;;19.40;99.90;;;;;;4939057;29;20126;-73
2022/08/02 07:57:32;;;;;;;8.32;2.70;;;19.50;99.90;;;;;;4956503;29;20149;-73
2022/08/02 07:59:58;;;;;;;10.00;2.43;;;19.70;99.90;;;;;;4956501;28;20487;-74
2022/08/02 08:02:24;;;;;;;9.97;2.63;;;19.80;99.90;;;;;;4954998;29;20058;-72
2022/08/02 08:04:50;;;;;;;13.10;2.80;;;19.90;99.90;;;;;;4954737;29;20047;-71
2022/08/02 08:07:16;;;;;;;8.32;2.63;;;20.00;99.90;;;;;;4955014;29;20403;-73
2022/08/02 08:09:42;;;;;;;9.43;2.63;;;20.10;99.90;;;;;;4938792;29;20055;-71
2022/08/02 08:12:09;;;;;;;12.07;2.60;;;20.10;99.90;;;;;;4937820;29;20051;-72
2022/08/02 08:14:36;;;;;;;9.48;2.60;;;20.20;99.90;;;;;;4956018;29;20062;-71
2022/08/02 08:17:02;;;;;;;;;;;20.40;99.90;;;;;;4938962;29;20130;-72
2022/08/02 08:19:28;;;;;;;9.88;2.20;;;20.50;99.90;;;;;;4955400;29;19962;-73
2022/08/02 08:21:54;;;;;;;6.47;2.10;;;;;;;;;;4955545;29;20459;-71
2022/08/02 08:24:20;;;;;;;6.40;1.85;;;20.90;99.90;;;;;;4954511;29;20465;-72
2022/08/02 08:26:45;;;;;;;6.17;1.87;;;21.00;99.90;;;;;;4954934;29;20055;-73
2022/08/02 08:29:11;;;;;;;9.97;2.20;;;21.10;99.90;;;;;;4938653;29;20058;-73
2022/08/02 08:31:37;;;;;;;10.47;2.30;;;21.20;99.90;;;;;;4955082;29;20157;-73
2022/08/02 08:34:04;;;;;;;6.67;1.67;;;21.40;99.90;;;;;;4955687;28;20091;-74
2022/08/02 08:36:30;;;;;;;6.35;1.55;;;21.40;99.90;;;;;;4955680;28;20054;-74
2022/08/02 08:38:56;;;;;;;8.23;2.13;;;21.50;99.90;;;;;;4955706;28;20055;-71
2022/08/02 08:41:22;;;;;;;7.00;1.73;;;21.40;99.90;;;;;;4954599;29;20051;-72
2022/08/02 08:43:48;;;;;;;4.73;1.23;;;21.40;99.90;;;;;;4955705;29;20443;-70
2022/08/02 08:46:32;;;;;;;3.30;1.20;;;21.50;99.90;;;;;;4938540;29;20139;-71
2022/08/02 08:49:01;;;;;;;7.30;1.40;;;21.60;99.90;;;;;;4955470;29;20126;-72
2022/08/02 08:51:32;;;;;;;7.43;1.35;;;21.70;99.90;;;;;;4954214;29;20051;-71
2022/08/02 08:54:02;;;;;;;4.15;1.45;;;21.80;99.90;;;;;;4954082;29;20557;-70
2022/08/02 08:56:33;;;;;;;5.50;1.38;;;21.90;99.90;;;;;;4955900;29;20047;-72
2022/08/02 08:59:00;;;;;;;4.60;1.58;;;22.10;99.90;;;;;;4955747;28;20051;-72
2022/08/02 09:01:26;;;;;;;;;;;22.10;99.90;;;;;;4938124;29;20094;-73
2022/08/02 09:03:52;;;;;;;6.72;1.42;;;22.10;99.90;;;;;;4954090;28;19972;-71
2022/08/02 09:06:17;;;;;;;5.77;1.50;;;22.10;99.90;;;;;;4955425;29;20374;-72
2022/08/02 09:08:43;;;;;;;6.73;1.53;;;22.30;99.90;;;;;;4921942;29;20047;-71
2022/08/02 09:11:15;;;;;;;4.50;1.37;;;22.30;99.90;;;;;;4955123;29;20149;-71
2022/08/02 09:13:58;;;;;;;5.28;1.75;;;22.50;99.90;;;;;;4953450;29;20349;-72
2022/08/02 09:16:36;;;;;;;5.75;1.80;;;22.60;99.90;;;;;;4937628;29;20051;-71
2022/08/02 09:19:18;;;;;;;8.77;2.00;;;22.70;99.90;;;;;;4954814;28;20059;-73
2022/08/02 09:21:45;;;;;;;5.90;1.80;;;22.80;99.90;;;;;;4953915;29;20063;-72
2022/08/02 09:24:23;;;;;;;6.57;2.05;;;23.00;99.90;;;;;;4952830;28;20514;-71
2022/08/02 09:26:50;;;;;;;7.50;2.00;;;23.10;99.90;;;;;;4954604;29;20126;-72
2022/08/02 09:29:18;;;;;;;7.55;2.00;;;23.30;99.90;;;;;;4955011;29;20051;-71
2022/08/02 09:31:44;;;;;;;7.45;1.85;;;23.50;99.90;;;;;;4953568;29;20418;-73
2022/08/02 09:34:10;;;;;;;6.43;2.20;;;23.60;99.90;;;;;;4937456;29;20129;-73
2022/08/02 09:36:41;;;;;;;6.18;2.58;;;23.70;99.90;;;;;;4954563;28;20079;-75
2022/08/02 09:39:10;;;;;;;7.28;2.47;;;23.70;99.90;;;;;;4953577;28;20107;-73
2022/08/02 09:41:42;;;;;;;9.93;2.80;;;23.90;99.90;;;;;;4955086;29;20074;-71
2022/08/02 09:44:12;;;;;;;5.78;2.45;;;24.10;99.90;;;;;;4954471;28;20043;-72
2022/08/02 09:46:40;;;;;;;6.30;2.10;;;24.20;99.90;;;;;;4922392;29;20058;-72
2022/08/02 09:49:09;;;;;;;8.38;2.33;;;24.30;99.90;;;;;;4937428;29;20050;-72
2022/08/02 09:51:55;;;;;;;7.72;2.60;;;24.40;99.90;;;;;;4937243;29;20109;-74
2022/08/02 09:54:27;;;;;;;4.97;2.30;;;24.60;99.90;;;;;;4937226;29;20051;-73
2022/08/02 09:56:54;;;;;;;8.48;2.65;;;24.70;99.90;;;;;;4954409;28;20043;-71
2022/08/02 09:59:23;;;;;;;13.02;3.28;;;24.90;99.90;;;;;;4954360;28;20055;-72
2022/08/02 10:01:50;;;;;;;7.28;2.60;;;25.00;99.90;;;;;;4953462;29;20121;-72
2022/08/02 10:04:24;;;;;;;7.30;2.78;;;25.00;99.90;;;;;;4922013;29;20043;-73
2022/08/02 10:06:52;;;;;;;7.40;2.80;;;25.00;99.90;;;;;;4953537;29;20447;-72
2022/08/02 10:09:18;;;;;;;5.30;2.40;;;24.80;99.60;;;;;;4936819;29;20051;-74
2022/08/02 10:11:44;;;;;;;7.20;2.65;;;24.90;99.90;;;;;;4937208;29;20091;-71
2022/08/02 10:14:11;;;;;;;8.82;2.65;;;24.90;99.90;;;;;;4953721;29;20086;-81
2022/08/02 10:16:41;;;;;;;6.55;2.50;;;25.00;99.90;;;;;;4954548;28;20083;-74
2022/08/02 10:19:08;;;;;;;8.48;2.70;;;25.10;99.90;;;;;;4953291;29;20090;-74
2022/08/02 10:21:52;;;;;;;10.10;2.78;;;25.20;99.90;;;;;;4937085;29;20125;-73
2022/08/02 10:24:22;;;;;;;7.32;2.85;;;25.20;99.90;;;;;;4952769;28;20106;-72
2022/08/02 10:26:48;;;;;;;9.18;2.92;;;25.20;99.90;;;;;;4954097;29;20043;-72
2022/08/02 10:29:18;;;;;;;7.18;2.78;;;25.20;99.90;;;;;;4953894;28;20103;-76
2022/08/02 10:32:03;;;;;;;10.02;2.85;;;25.20;99.90;;;;;;4954071;28;20047;-72
2022/08/02 10:34:46;;;;;;;7.80;2.67;;;25.20;99.90;;;;;;4954231;28;20500;-72
2022/08/02 10:37:13;;;;;;;11.82;3.30;;;25.30;99.90;;;;;;4957215;29;20435;-72
2022/08/02 10:39:40;;;;;;;7.75;2.70;;;25.30;99.80;;;;;;4957565;29;20213;-72
2022/08/02 10:42:07;;;;;;;9.70;3.03;;;25.30;99.90;;;;;;4957693;28;20063;-71
2022/08/02 10:44:34;;;;;;;7.95;3.03;;;25.40;99.60;;;;;;4956295;29;20087;-72
2022/08/02 10:47:21;;;;;;;7.60;2.70;;;25.40;99.70;;;;;;4956249;29;20050;-72
2022/08/02 10:49:55;;;;;;;7.05;2.75;;;25.50;99.20;;;;;;4956045;29;20077;-72
2022/08/02 10:52:25;;;;;;;8.27;3.40;;;25.50;99.60;;;;;;4956557;29;20055;-70
2022/08/02 10:55:11;;;;;;;7.22;2.97;;;25.60;98.70;;;;;;4956482;29;20059;-73
2022/08/02 10:57:36;;;;;;;7.78;3.03;;;25.60;99.00;;;;;;4958207;28;20169;-75
2022/08/02 11:00:21;;;;;;;8.55;3.20;;;25.50;99.00;;;;;;4940801;29;20395;-72
2022/08/02 11:02:47;;;;;;;7.55;3.00;;;25.50;98.60;;;;;;4957539;28;20090;-72
2022/08/02 11:05:31;;;;;;;5.72;2.50;;;25.60;98.90;;;;;;4940501;29;20110;-71
2022/08/02 11:07:57;;;;;;;6.28;2.30;;;25.70;99.30;;;;;;4956409;29;20043;-78
2022/08/02 11:10:38;;;;;;;8.15;2.13;;;25.80;98.30;;;;;;4956174;29;20047;-74
2022/08/02 11:13:15;;;;;;;4.70;2.33;;;26.00;98.50;;;;;;4956099;29;20130;-74
2022/08/02 11:16:03;;;;;;;5.40;2.72;;;26.10;97.70;;;;;;4956315;29;20051;-75
2022/08/02 11:18:50;;;;;;;9.00;2.38;;;26.10;97.20;;;;;;4955867;29;20039;-73
2022/08/02 11:21:24;;;;;;;5.07;1.88;;;26.10;97.70;;;;;;4956242;29;20086;-73
2022/08/02 11:23:51;;;;;;;6.38;2.35;;;26.20;98.00;;;;;;4957157;29;20097;-74
2022/08/02 11:26:29;;;;;;;4.28;1.42;;;26.30;97.60;;;;;;4955830;29;20047;-71
2022/08/02 11:29:04;;;;;;;2.70;0.90;;;26.40;96.10;;;;;;4957089;29;20171;-74
2022/08/02 11:31:41;;;;;;;2.55;1.10;;;26.30;96.10;;;;;;4940510;29;20082;-74
2022/08/02 11:34:08;;;;;;;3.10;1.08;;;26.50;94.70;;;;;;4956207;29;20129;-73
2022/08/02 11:36:49;;;;;;;2.55;1.00;;;26.50;94.30;;;;;;4956979;29;20043;-73
2022/08/02 11:39:18;;;;;;;3.70;1.10;;;26.40;93.50;;;;;;4956674;29;20158;-72
2022/08/02 11:41:53;;;;;;;3.25;1.30;;;26.50;93.30;;;;;;4939892;29;20162;-73
2022/08/02 11:44:19;;;;;;;3.33;1.25;;;26.50;93.30;;;;;;4956928;28;20080;-73
2022/08/02 11:46:53;;;;;;;4.30;1.38;;;26.60;93.50;;;;;;4955959;28;20047;-74
2022/08/02 11:49:18;;;;;;;4.15;1.50;;;26.50;94.20;;;;;;4956229;29;20047;-75
2022/08/02 11:51:53;;;;;;;3.50;1.70;;;26.60;94.90;;;;;;4923412;29;20427;-71
2022/08/02 11:54:24;;;;;;;4.97;2.03;;;26.70;95.30;;;;;;4956212;29;20384;-72
2022/08/02 11:56:49;;;;;;;5.32;2.00;;;26.90;95.20;;;;;;4955338;29;20101;-72
2022/08/02 11:59:15;;;;;;;5.13;2.08;;;27.00;95.00;;;;;;4956605;29;20391;-71
2022/08/02 12:01:42;;;;;;;6.50;2.40;;;27.00;95.30;;;;;;4924093;29;20051;-72
2022/08/02 12:04:07;;;;;;;;;;;26.90;94.50;;;;;;4956006;29;20087;-71
2022/08/02 12:06:33;;;;;;;;;;;26.80;95.20;;;;;;4956815;29;19954;-73
2022/08/02 12:09:07;;;;;;;13.10;2.10;;;26.60;94.50;;;;;;4955099;29;19929;-72
2022/08/02 12:11:35;;;;;;;5.93;1.90;;;26.70;95.70;;;;;;4956913;29;20081;-72
2022/08/02 12:14:01;;;;;;;6.88;2.60;;;26.80;95.60;;;;;;4955127;29;20515;-73
2022/08/02 12:19:26;;;;;;;5.80;2.38;;;26.90;95.60;;;;;;4935821;28;20055;-72
2022/08/02 12:22:18;;;;;;;7.53;3.20;;;27.00;95.20;;;;;;4957138;28;20448;-70
2022/08/02 12:24:55;;;;;;;4.55;2.45;;;27.20;95.20;;;;;;4955147;29;20134;-73
2022/08/02 12:27:28;;;;;;;5.70;2.65;;;27.40;95.00;;;;;;4932372;29;20059;-72
2022/08/02 12:30:08;;;;;;;6.13;2.17;;;27.60;94.60;;;;;;4955044;29;20190;-74
2022/08/02 12:32:34;;;;;;;5.15;1.85;;;27.60;94.60;;;;;;4956761;29;20047;-75
2022/08/02 12:35:20;;;;;;;6.75;1.40;;;27.70;94.00;;;;;;4954864;29;20201;-72
2022/08/02 12:37:48;;;;;;;6.72;1.80;;;27.70;93.80;;;;;;4954949;29;20542;-72
2022/08/02 12:40:28;;;;;;;6.45;1.77;;;27.80;93.90;;;;;;4954953;29;20071;-72
2022/08/02 12:42:58;;;;;;;8.55;1.40;;;28.10;93.10;;;;;;4956144;29;20058;-71
2022/08/02 12:45:25;;;;;;;5.10;1.38;;;28.10;92.90;;;;;;4956179;28;20055;-72
2022/08/02 12:47:53;;;;;;;4.07;1.20;;;28.30;92.90;;;;;;4938535;29;20086;-76
2022/08/02 12:50:33;;;;;;;4.03;1.17;;;28.40;92.30;;;;;;4955790;29;20051;-73
2022/08/02 12:53:08;;;;;;;4.03;1.13;;;28.40;91.50;;;;;;4954948;29;20055;-77
2022/08/02 12:55:37;;;;;;;5.43;1.30;;;28.10;92.10;;;;;;4956233;29;20435;-70
2022/08/02 12:58:04;;;;;;;4.28;1.40;;;27.70;91.90;;;;;;4955176;28;20047;-72
2022/08/02 13:00:36;;;;;;;3.70;1.30;;;27.80;92.60;;;;;;4955674;28;20055;-74